createdAt,value
2019-05-11T00:01:42.617Z,12.86
2019-05-11T00:11:44.388Z,11.82
2019-05-11T00:21:45.326Z,12.32
2019-05-11T00:31:46.292Z,12.09
2019-05-11T00:41:47.058Z,11.66
2019-05-11T00:51:47.696Z,11.74
2019-05-11T01:01:48.413Z,12.32
2019-05-11T01:11:49.103Z,12.29
2019-05-11T01:21:50.006Z,11.77
2019-05-11T01:31:51.091Z,12.37
2019-05-11T01:41:51.961Z,11.17
2019-05-11T01:51:52.902Z,10.83
2019-05-11T02:01:54.870Z,10.57
2019-05-11T02:11:56.817Z,10.57
2019-05-11T02:21:58.803Z,10.36
2019-05-11T02:31:59.792Z,10.33
2019-05-11T02:42:00.456Z,10.52
2019-05-11T02:52:01.169Z,10.20
2019-05-11T03:02:01.929Z,9.97
2019-05-11T03:12:02.934Z,10.04
2019-05-11T03:22:03.961Z,10.04
2019-05-11T03:32:04.947Z,9.59
2019-05-11T03:42:14.787Z,9.65
2019-05-11T03:52:08.744Z,9.74
2019-05-11T04:02:09.674Z,9.67
2019-05-11T04:12:10.404Z,9.65
2019-05-11T04:22:11.336Z,9.99
2019-05-11T04:32:12.113Z,9.77
2019-05-11T04:42:13.029Z,9.78
2019-05-11T04:52:13.750Z,9.97
2019-05-11T05:02:14.441Z,9.53
2019-05-11T05:12:15.692Z,9.98
2019-05-11T05:22:16.796Z,9.82
2019-05-11T05:32:17.901Z,10.27
2019-05-11T05:42:18.812Z,9.54
2019-05-11T05:52:20.753Z,9.94
2019-05-11T06:02:21.657Z,10.13
2019-05-11T06:12:22.664Z,9.63
2019-05-11T06:22:23.548Z,9.59
2019-05-11T06:32:24.545Z,9.21
2019-05-11T06:42:25.310Z,9.29
2019-05-11T06:52:26.082Z,9.05
2019-05-11T07:02:26.997Z,9.05
2019-05-11T07:12:28.010Z,9.38
2019-05-11T07:22:28.947Z,9.35
2019-05-11T07:32:29.662Z,9.68
2019-05-11T07:42:30.490Z,9.80
2019-05-11T07:52:31.134Z,9.67
2019-05-11T08:02:32.412Z,9.69
2019-05-11T08:12:38.840Z,9.51
2019-05-11T08:22:39.085Z,9.66
2019-05-11T08:32:43.730Z,9.93
2019-05-11T08:42:44.474Z,9.62
2019-05-11T08:52:47.708Z,10.37
2019-05-11T09:02:50.733Z,10.23
2019-05-11T09:12:50.828Z,9.57
2019-05-11T09:22:51.713Z,9.71
2019-05-11T09:32:58.120Z,9.89
2019-05-11T09:42:59.114Z,9.80
2019-05-11T09:52:59.769Z,9.92
2019-05-11T10:03:00.706Z,9.96
2019-05-11T10:13:01.577Z,10.38
2019-05-11T10:23:02.225Z,10.41
2019-05-11T10:33:02.906Z,10.29
2019-05-11T10:43:03.621Z,10.33
2019-05-11T10:53:04.513Z,10.33
2019-05-11T11:03:05.123Z,9.79
2019-05-11T11:13:08.287Z,10.35
2019-05-11T11:23:09.187Z,10.75
2019-05-11T11:33:11.164Z,10.80
2019-05-11T11:43:12.132Z,10.81
2019-05-11T11:53:13.038Z,10.29
2019-05-11T12:03:13.999Z,10.18
2019-05-11T12:13:14.721Z,10.07
2019-05-11T12:23:17.820Z,10.22
2019-05-11T12:33:18.859Z,9.75
2019-05-11T12:43:22.480Z,10.39
2019-05-11T12:53:22.341Z,9.81
2019-05-11T13:03:22.996Z,10.01
2019-05-11T13:13:25.862Z,10.68
2019-05-11T13:23:27.848Z,10.50
2019-05-11T13:33:28.763Z,10.77
2019-05-11T13:43:30.646Z,10.67
2019-05-11T13:53:31.567Z,10.11
2019-05-11T14:03:32.213Z,9.67
2019-05-11T14:13:33.160Z,9.94
2019-05-11T14:23:34.213Z,10.16
2019-05-11T14:33:35.136Z,10.63
2019-05-11T14:43:38.331Z,10.87
2019-05-11T14:53:39.452Z,10.76
2019-05-11T15:03:40.096Z,11.02
2019-05-11T15:13:40.953Z,11.33
2019-05-11T15:23:41.909Z,11.01
2019-05-11T15:33:42.523Z,11.02
2019-05-11T15:43:43.511Z,10.94
2019-05-11T15:53:47.639Z,10.90
2019-05-11T16:03:50.133Z,11.37
2019-05-11T16:13:50.867Z,10.74
2019-05-11T16:23:51.773Z,11.16
2019-05-11T16:33:53.607Z,11.19
2019-05-11T16:43:54.446Z,11.25
2019-05-11T16:53:55.112Z,11.79
2019-05-11T17:03:57.845Z,11.74
2019-05-11T17:13:58.549Z,11.68
2019-05-11T17:23:59.208Z,11.58
2019-05-11T17:33:59.916Z,11.12
2019-05-11T17:44:00.789Z,11.53
2019-05-11T17:54:01.709Z,11.22
2019-05-11T18:04:02.599Z,11.24
2019-05-11T18:14:04.509Z,11.63
2019-05-11T18:24:09.108Z,11.36
2019-05-11T18:34:10.366Z,11.33
2019-05-11T18:44:11.398Z,10.99
2019-05-11T18:54:12.371Z,11.07
2019-05-11T19:04:13.343Z,11.22
2019-05-11T19:14:14.293Z,10.88
2019-05-11T19:24:18.959Z,11.13
2019-05-11T19:34:20.443Z,10.61
2019-05-11T19:44:24.589Z,10.17
2019-05-11T19:54:25.568Z,9.61
2019-05-11T20:04:28.309Z,9.06
2019-05-11T20:14:28.834Z,9.39
2019-05-11T20:24:32.305Z,9.16
2019-05-11T20:34:33.215Z,9.08
2019-05-11T20:44:34.170Z,9.11
2019-05-11T20:54:34.833Z,8.58
2019-05-11T21:04:38.446Z,8.71
2019-05-11T21:14:38.679Z,8.49
2019-05-11T21:24:39.701Z,7.93
2019-05-11T21:34:40.484Z,8.11
2019-05-11T21:44:41.098Z,8.07
2019-05-11T21:54:42.131Z,8.05
2019-05-11T22:04:43.172Z,8.02
2019-05-11T22:14:43.888Z,7.93
2019-05-11T22:24:47.619Z,8.20
2019-05-11T22:34:48.167Z,8.50
2019-05-11T22:44:48.824Z,8.07
2019-05-11T22:54:49.487Z,7.06
2019-05-11T23:04:50.152Z,7.02
2019-05-11T23:14:50.775Z,7.23
2019-05-11T23:24:51.476Z,7.32
2019-05-11T23:34:52.162Z,6.94
2019-05-11T23:44:52.882Z,6.10
2019-05-11T23:54:53.545Z,6.33
